Time;durP1;ratioP1;P1;durP2;ratioP2;P2;SDS_P1;SDS_P2;PMS_P1;PMS_P2;Temp;Humidity;BMP_temperature;BMP_pressure;BME280_temperature;BME280_humidity;BME280_pressure;Samples;Min_cycle;Max_cycle;Signal;HPM_P1;HPM_P2
2023/12/09 00:01:50;;;;;;;;;;;;;;;10.10;66.60;96915.03;4172089;28;5084;-71
2023/12/09 00:03:53;;;;;;;;;;;;;;;10.11;66.71;96921.13;4185265;28;6545;-71
2023/12/09 00:05:56;;;;;;;;;;;;;;;10.12;66.76;96928.84;4185518;28;5820;-71
2023/12/09 00:07:59;;;;;;;;;;;;;;;10.12;66.85;96933.31;4185501;28;5723;-71
2023/12/09 00:10:03;;;;;;;;;;;;;;;10.13;66.85;96916.47;4185063;28;5807;-70
2023/12/09 00:12:06;;;;;;;;;;;;;;;10.15;66.92;96922.38;4185220;28;5712;-71
2023/12/09 00:14:11;;;;;;;;;;;;;;;10.14;66.85;96924.19;4185002;28;5708;-71
2023/12/09 00:16:14;;;;;;;;;;;;;;;10.17;66.93;96920.38;4183940;28;5849;-71
2023/12/09 00:18:16;;;;;;;;;;;;;;;10.15;66.89;96925.84;4185082;28;5809;-71
2023/12/09 00:20:19;;;;;;;;;;;;;;;10.16;66.61;96935.41;4185262;28;5712;-71
2023/12/09 00:22:23;;;;;;;;;;;;;;;10.17;66.46;96930.94;4184967;28;5720;-71
2023/12/09 00:24:26;;;;;;;;;;;;;;;10.18;66.57;96932.56;4184882;28;5700;-72
2023/12/09 00:26:30;;;;;;;;;;;;;;;10.18;66.89;96933.38;4184669;28;5701;-71
2023/12/09 00:28:32;;;;;;;;;;;;;;;10.20;66.71;96930.56;4184388;28;5720;-71
2023/12/09 00:30:37;;;;;;;;;;;;;;;10.20;66.67;96927.94;4185014;28;6175;-71
2023/12/09 00:32:39;;;;;;;;;;;;;;;10.20;66.35;96936.69;4181944;28;5721;-70
2023/12/09 00:34:42;;;;;;;;;;;;;;;10.20;66.76;96930.56;4184831;28;5862;-71
2023/12/09 00:36:44;;;;;;;;;;;;;;;10.22;66.32;96943.63;4184700;28;5783;-71
2023/12/09 00:38:47;;;;;;;;;;;;;;;10.23;66.39;96940.78;4184789;28;5823;-72
2023/12/09 00:40:50;;;;;;;;;;;;;;;10.25;66.51;96944.06;4184378;28;5708;-72
2023/12/09 00:42:53;;;;;;;;;;;;;;;10.25;66.54;96948.53;4184656;28;5725;-72
2023/12/09 00:44:56;;;;;;;;;;;;;;;10.25;66.29;96946.72;4184888;28;5725;-72
2023/12/09 00:47:00;;;;;;;;;;;;;;;10.25;66.33;96941.41;4184450;28;5795;-71
2023/12/09 00:49:03;;;;;;;;;;;;;;;10.25;66.60;96933.50;4177028;28;5757;-72
2023/12/09 00:51:06;;;;;;;;;;;;;;;10.26;66.27;96943.06;4168174;28;5783;-72
2023/12/09 00:53:09;;;;;;;;;;;;;;;10.26;66.19;96935.13;4168003;28;5857;-72
2023/12/09 00:55:12;;;;;;;;;;;;;;;10.27;66.30;96926.19;4182895;28;5799;-71
2023/12/09 00:57:15;;;;;;;;;;;;;;;10.28;66.51;96932.28;4184509;28;5966;-71
2023/12/09 00:59:18;;;;;;;;;;;;;;;10.26;66.16;96927.19;4184464;28;5723;-71
2023/12/09 01:01:21;;;;;;;;;;;;;;;10.26;66.40;96929.03;4184616;28;5716;-71
2023/12/09 01:03:25;;;;;;;;;;;;;;;10.25;66.48;96936.13;4184512;28;5823;-71
2023/12/09 01:05:27;;;;;;;;;;;;;;;10.25;66.22;96946.72;4182408;28;5758;-71
2023/12/09 01:07:30;;;;;;;;;;;;;;;10.26;66.12;96966.84;4184178;28;5721;-70
2023/12/09 01:09:33;;;;;;;;;;;;;;;10.27;66.10;96967.66;4184541;28;5775;-71
2023/12/09 01:11:36;;;;;;;;;;;;;;;10.26;66.01;96960.72;4184219;28;5784;-71
2023/12/09 01:13:39;;;;;;;;;;;;;;;10.25;66.37;96978.41;4184280;28;5867;-75
2023/12/09 01:15:42;;;;;;;;;;;;;;;10.25;66.12;96969.66;4184160;28;5811;-71
2023/12/09 01:17:45;;;;;;;;;;;;;;;10.25;66.24;96965.19;4184442;28;5848;-71
2023/12/09 01:19:49;;;;;;;;;;;;;;;10.24;66.24;96963.56;4184233;28;5863;-71
2023/12/09 01:21:52;;;;;;;;;;;;;;;10.22;66.40;96968.22;4184253;28;5820;-72
2023/12/09 01:23:55;;;;;;;;;;;;;;;10.22;66.31;96968.22;4183654;28;5716;-72
2023/12/09 01:25:58;;;;;;;;;;;;;;;10.23;66.01;96972.50;4183775;28;5736;-72
2023/12/09 01:28:00;;;;;;;;;;;;;;;10.22;66.55;96970.88;4184313;28;5895;-72
2023/12/09 01:30:04;;;;;;;;;;;;;;;10.22;66.19;96976.16;4184331;28;5704;-71
2023/12/09 01:32:07;;;;;;;;;;;;;;;10.25;66.30;96969.66;4184078;28;5716;-72
2023/12/09 01:34:09;;;;;;;;;;;;;;;10.25;66.52;96970.47;4183952;28;5754;-72
2023/12/09 01:36:13;;;;;;;;;;;;;;;10.26;66.20;96971.31;4184157;28;5803;-72
2023/12/09 01:38:16;;;;;;;;;;;;;;;10.22;66.21;96960.28;4184188;28;5877;-71
2023/12/09 01:40:19;;;;;;;;;;;;;;;10.25;66.21;96972.31;4185279;28;5709;-72
2023/12/09 01:42:22;;;;;;;;;;;;;;;10.23;66.30;96967.22;4187691;28;5719;-72
2023/12/09 01:44:25;;;;;;;;;;;;;;;10.24;65.99;96976.78;4187653;28;5708;-71
2023/12/09 01:46:28;;;;;;;;;;;;;;;10.20;66.21;96978.94;4187685;28;5724;-71
2023/12/09 01:48:32;;;;;;;;;;;;;;;10.24;66.42;96976.78;4187644;28;5708;-72
2023/12/09 01:50:35;;;;;;;;;;;;;;;10.25;66.19;96983.69;4187508;28;5787;-71
2023/12/09 01:52:40;;;;;;;;;;;;;;;10.26;66.21;96980.03;4187398;28;5720;-71
2023/12/09 01:54:43;;;;;;;;;;;;;;;10.28;66.15;96975.38;4187215;28;5832;-71
2023/12/09 01:56:46;;;;;;;;;;;;;;;10.28;66.36;96970.09;4185157;28;5971;-70
2023/12/09 01:58:50;;;;;;;;;;;;;;;10.28;66.22;96975.38;4187704;28;5712;-71
2023/12/09 02:00:53;;;;;;;;;;;;;;;10.29;66.41;96966.44;4187215;28;5871;-72
2023/12/09 02:02:57;;;;;;;;;;;;;;;10.27;66.01;96952.63;4187848;28;5771;-72
2023/12/09 02:05:02;;;;;;;;;;;;;;;10.29;66.29;96953.25;4188713;28;5779;-72
2023/12/09 02:07:05;;;;;;;;;;;;;;;10.26;66.22;96950.97;4188444;28;5861;-72
2023/12/09 02:09:10;;;;;;;;;;;;;;;10.26;66.25;96950.16;4188459;28;5708;-72
2023/12/09 02:11:22;;;;;;;;;;;;;;;10.25;66.11;96941.41;4188334;28;5707;-71
2023/12/09 02:13:31;;;;;;;;;;;;;;;10.26;66.22;96945.69;4185429;28;5721;-72
2023/12/09 02:15:40;;;;;;;;;;;;;;;10.26;66.03;96935.13;4180323;28;5722;-71
2023/12/09 02:17:50;;;;;;;;;;;;;;;10.27;66.19;96931.47;4188071;28;6516;-71
2023/12/09 02:19:54;;;;;;;;;;;;;;;10.26;66.11;96929.84;4188647;28;5725;-72
2023/12/09 02:21:57;;;;;;;;;;;;;;;10.28;66.13;96930.47;4187112;28;5709;-72
2023/12/09 02:24:01;;;;;;;;;;;;;;;10.29;65.86;96918.06;4187422;28;5724;-71
2023/12/09 02:26:11;;;;;;;;;;;;;;;10.29;66.14;96918.88;4188265;28;5893;-71
2023/12/09 02:28:18;;;;;;;;;;;;;;;10.30;65.73;96917.88;4178618;28;5836;-72
2023/12/09 02:30:27;;;;;;;;;;;;;;;10.30;66.12;96922.34;4187798;28;5712;-72
2023/12/09 02:32:32;;;;;;;;;;;;;;;10.31;65.91;96916.09;4180209;28;5708;-71
2023/12/09 02:34:38;;;;;;;;;;;;;;;10.31;65.73;96911.63;4187309;28;5722;-71
2023/12/09 02:36:44;;;;;;;;;;;;;;;10.30;65.91;96914.41;4186577;28;5659;-71
2023/12/09 02:38:52;;;;;;;;;;;;;;;10.31;66.02;96911.63;4187857;28;5701;-71
2023/12/09 02:40:58;;;;;;;;;;;;;;;10.32;65.81;96909.78;4188390;28;5830;-71
2023/12/09 02:43:01;;;;;;;;;;;;;;;10.31;66.06;96906.34;4186959;28;6197;-71
2023/12/09 02:45:06;;;;;;;;;;;;;;;10.31;65.92;96901.03;4186545;28;5723;-71
2023/12/09 02:47:12;;;;;;;;;;;;;;;10.30;65.62;96894.09;4185949;28;5705;-70
2023/12/09 02:49:16;;;;;;;;;;;;;;;10.30;65.53;96888.81;4186815;28;5720;-72
2023/12/09 02:51:19;;;;;;;;;;;;;;;10.30;65.49;96890.63;4185726;28;5696;-71
2023/12/09 02:53:22;;;;;;;;;;;;;;;10.27;65.63;96886.56;4186277;28;5818;-72
2023/12/09 02:55:25;;;;;;;;;;;;;;;10.25;65.94;96891.22;4185880;28;5681;-72
2023/12/09 02:57:29;;;;;;;;;;;;;;;10.25;65.49;96885.13;4186217;28;5740;-72
2023/12/09 02:59:32;;;;;;;;;;;;;;;10.25;65.94;96885.13;4186416;28;5727;-72
2023/12/09 03:01:35;;;;;;;;;;;;;;;10.25;65.58;96878.00;4186280;28;5895;-72
2023/12/09 03:03:37;;;;;;;;;;;;;;;10.27;65.91;96885.75;4186426;28;5724;-70
2023/12/09 03:05:40;;;;;;;;;;;;;;;10.27;65.81;96885.75;4185657;28;5705;-71
2023/12/09 03:07:43;;;;;;;;;;;;;;;10.25;65.49;96885.94;4186411;28;5739;-71
2023/12/09 03:09:45;;;;;;;;;;;;;;;10.26;65.60;96881.47;4186308;28;5709;-72
2023/12/09 03:11:48;;;;;;;;;;;;;;;10.26;65.75;96882.28;4186254;28;5708;-72
2023/12/09 03:13:52;;;;;;;;;;;;;;;10.26;65.44;96884.94;4186139;28;5799;-72
2023/12/09 03:15:54;;;;;;;;;;;;;;;10.24;65.30;96876.38;4186191;28;5181;-71
2023/12/09 03:17:57;;;;;;;;;;;;;;;10.25;65.53;96882.47;4185801;28;7698;-71
2023/12/09 03:19:59;;;;;;;;;;;;;;;10.23;65.56;96885.31;4185889;28;5837;-71
2023/12/09 03:22:02;;;;;;;;;;;;;;;10.23;65.75;96877.38;4183395;28;5837;-72
2023/12/09 03:24:06;;;;;;;;;;;;;;;10.24;65.68;96886.94;4186040;28;5727;-71
2023/12/09 03:26:14;;;;;;;;;;;;;;;10.24;65.52;96884.31;4184411;28;5631;-72
2023/12/09 03:28:17;;;;;;;;;;;;;;;10.24;65.60;96894.88;4185742;28;5716;-72
2023/12/09 03:30:22;;;;;;;;;;;;;;;10.24;65.62;96894.88;4180792;28;5741;-72
2023/12/09 03:32:25;;;;;;;;;;;;;;;10.25;65.32;96900.97;4173502;28;5832;-72
2023/12/09 03:34:27;;;;;;;;;;;;;;;10.24;65.50;96900.16;4146071;28;5818;-71
2023/12/09 03:36:30;;;;;;;;;;;;;;;10.26;65.23;96907.88;4148959;28;5748;-71
2023/12/09 03:38:32;;;;;;;;;;;;;;;10.27;65.13;96904.25;4148224;28;5834;-71
2023/12/09 03:40:35;;;;;;;;;;;;;;;10.28;65.48;96903.22;4139871;28;5920;-72
2023/12/09 03:42:38;;;;;;;;;;;;;;;10.27;65.37;96899.78;4147560;28;5839;-72
2023/12/09 03:44:41;;;;;;;;;;;;;;;10.28;65.20;96905.88;4138971;28;6462;-71
2023/12/09 03:46:45;;;;;;;;;;;;;;;10.26;65.18;96900.78;4151634;28;5766;-72
2023/12/09 03:48:47;;;;;;;;;;;;;;;10.28;65.19;96897.94;4136878;28;5859;-72
2023/12/09 03:50:51;;;;;;;;;;;;;;;10.28;65.30;96904.03;4146902;28;5747;-72
2023/12/09 03:52:54;;;;;;;;;;;;;;;10.28;65.29;96901.41;4146839;28;5775;-72
2023/12/09 03:54:56;;;;;;;;;;;;;;;10.30;65.27;96906.50;4152648;28;5747;-72
2023/12/09 03:56:58;;;;;;;;;;;;;;;10.30;64.95;96904.66;4142897;28;5750;-72
2023/12/09 03:59:01;;;;;;;;;;;;;;;10.30;65.19;96894.09;4149530;28;5824;-72
2023/12/09 04:01:04;;;;;;;;;;;;;;;10.30;65.24;96899.38;4150226;28;7749;-72
2023/12/09 04:03:09;;;;;;;;;;;;;;;10.30;64.96;96888.81;4148991;28;5997;-71
2023/12/09 04:05:12;;;;;;;;;;;;;;;10.30;65.07;96890.63;4139354;28;5886;-72
2023/12/09 04:07:15;;;;;;;;;;;;;;;10.29;65.04;96892.47;4137033;28;5892;-72
2023/12/09 04:09:20;;;;;;;;;;;;;;;10.30;64.77;96893.28;4136119;28;5883;-71
2023/12/09 04:11:25;;;;;;;;;;;;;;;10.31;64.94;96884.38;4144151;28;5862;-71
2023/12/09 04:13:48;;;;;;;;;;;;;;;10.30;64.73;96893.28;4150757;28;5751;-72
2023/12/09 04:15:51;;;;;;;;;;;;;;;10.29;65.15;96894.28;4142518;28;5769;-72
2023/12/09 04:17:54;;;;;;;;;;;;;;;10.27;64.88;96899.78;4150314;28;6381;-72
2023/12/09 04:19:59;;;;;;;;;;;;;;;10.26;65.09;96899.97;4151598;28;5758;-72
2023/12/09 04:22:02;;;;;;;;;;;;;;;10.26;65.09;96900.78;4150640;28;5906;-72
2023/12/09 04:24:05;;;;;;;;;;;;;;;10.29;65.06;96907.50;4135772;28;5820;-71
2023/12/09 04:26:08;;;;;;;;;;;;;;;10.29;64.92;96913.59;4148669;28;5791;-72
2023/12/09 04:28:12;;;;;;;;;;;;;;;10.31;64.75;96913.44;4151299;28;5846;-72
2023/12/09 04:30:15;;;;;;;;;;;;;;;10.30;64.66;96915.25;4135616;28;5947;-72
2023/12/09 04:32:18;;;;;;;;;;;;;;;10.31;64.83;96921.38;4150749;28;5748;-72
2023/12/09 04:34:21;;;;;;;;;;;;;;;10.30;64.90;96925.81;4182290;28;5727;-70
2023/12/09 04:36:26;;;;;;;;;;;;;;;10.28;64.53;96914.63;4176162;28;5703;-71
2023/12/09 04:38:28;;;;;;;;;;;;;;;10.26;64.91;96913.19;4184597;28;5847;-71
2023/12/09 04:40:31;;;;;;;;;;;;;;;10.26;64.60;96914.00;4184210;28;5811;-70
2023/12/09 04:42:34;;;;;;;;;;;;;;;10.25;64.60;96909.72;4184590;28;5802;-71
2023/12/09 04:44:36;;;;;;;;;;;;;;;10.25;64.90;96904.44;4184642;28;5810;-71
2023/12/09 04:46:39;;;;;;;;;;;;;;;10.26;64.71;96899.97;4181022;28;5730;-71
2023/12/09 04:48:43;;;;;;;;;;;;;;;10.25;64.71;96890.41;4184653;28;5712;-72
2023/12/09 04:50:46;;;;;;;;;;;;;;;10.24;64.77;96889.59;4184450;28;5720;-71
2023/12/09 04:52:51;;;;;;;;;;;;;;;10.24;64.86;96892.22;4184182;28;5701;-71
2023/12/09 04:54:54;;;;;;;;;;;;;;;10.25;64.83;96893.88;4184284;28;5720;-71
2023/12/09 04:56:57;;;;;;;;;;;;;;;10.26;64.60;96892.03;4183726;28;5728;-71
2023/12/09 04:59:01;;;;;;;;;;;;;;;10.26;64.85;96887.56;4182936;28;5711;-71
2023/12/09 05:01:03;;;;;;;;;;;;;;;10.25;64.43;96891.22;4184240;28;5823;-72
2023/12/09 05:03:06;;;;;;;;;;;;;;;10.24;64.71;96889.59;4183942;28;5708;-71
2023/12/09 05:05:09;;;;;;;;;;;;;;;10.24;64.80;96892.22;4182299;28;5832;-72
2023/12/09 05:07:12;;;;;;;;;;;;;;;10.25;64.56;96893.03;4184336;28;5807;-72
2023/12/09 05:09:16;;;;;;;;;;;;;;;10.25;64.73;96895.69;4184035;28;6576;-72
2023/12/09 05:11:19;;;;;;;;;;;;;;;10.23;64.57;96905.63;4183931;28;5704;-72
2023/12/09 05:13:22;;;;;;;;;;;;;;;10.22;64.79;96896.88;4184247;28;5935;-72
2023/12/09 05:15:25;;;;;;;;;;;;;;;10.19;64.83;96886.66;4184041;28;6375;-72
2023/12/09 05:17:27;;;;;;;;;;;;;;;10.17;64.57;96883.38;4183931;28;5704;-72
2023/12/09 05:19:30;;;;;;;;;;;;;;;10.16;64.72;96881.75;4184070;28;5709;-72
2023/12/09 05:21:34;;;;;;;;;;;;;;;10.14;64.79;96876.66;4184104;28;5700;-73
2023/12/09 05:23:38;;;;;;;;;;;;;;;10.14;64.80;96878.47;4183870;28;5737;-72
2023/12/09 05:25:43;;;;;;;;;;;;;;;10.12;64.99;96883.13;4168126;28;5992;-72
2023/12/09 05:27:47;;;;;;;;;;;;;;;10.12;64.94;96883.13;4167674;28;5738;-72
2023/12/09 05:29:50;;;;;;;;;;;;;;;10.10;64.80;96885.16;4167573;28;5816;-72
2023/12/09 05:31:53;;;;;;;;;;;;;;;10.08;64.96;96884.50;4167612;28;5861;-71
2023/12/09 05:33:56;;;;;;;;;;;;;;;10.06;64.68;96874.13;4167209;28;5877;-72
2023/12/09 05:36:01;;;;;;;;;;;;;;;10.06;65.00;96878.59;4158309;28;5749;-72
2023/12/09 05:38:04;;;;;;;;;;;;;;;10.06;64.99;96870.66;4166729;28;5945;-72
2023/12/09 05:40:08;;;;;;;;;;;;;;;10.07;64.93;96864.38;4166387;28;5734;-72
2023/12/09 05:42:13;;;;;;;;;;;;;;;10.06;64.64;96860.09;4166791;28;5757;-72
2023/12/09 05:44:15;;;;;;;;;;;;;;;10.05;64.68;96847.91;4167429;28;5840;-71
2023/12/09 05:46:18;;;;;;;;;;;;;;;10.05;64.69;96850.53;4165097;28;5833;-72
2023/12/09 05:48:21;;;;;;;;;;;;;;;10.05;64.64;96854.00;4167066;28;5741;-71
2023/12/09 05:50:24;;;;;;;;;;;;;;;10.03;64.64;96849.91;4159213;28;5757;-72
2023/12/09 05:52:27;;;;;;;;;;;;;;;10.03;64.55;96842.00;4167150;28;5952;-72
2023/12/09 05:54:31;;;;;;;;;;;;;;;10.03;64.38;96842.00;4167067;28;5832;-72
2023/12/09 05:56:34;;;;;;;;;;;;;;;10.04;64.44;96843.63;4166908;28;5081;-72
2023/12/09 05:58:39;;;;;;;;;;;;;;;10.03;64.26;96826.16;4167065;28;7234;-72
2023/12/09 06:00:43;;;;;;;;;;;;;;;10.02;64.47;96821.88;4167394;28;5912;-72
2023/12/09 06:02:46;;;;;;;;;;;;;;;10.00;64.70;96810.69;4167394;28;5748;-71
2023/12/09 06:04:49;;;;;;;;;;;;;;;10.02;64.54;96811.31;4167130;28;5773;-71
2023/12/09 06:06:52;;;;;;;;;;;;;;;10.01;64.47;96814.97;4167409;28;5861;-71
2023/12/09 06:08:55;;;;;;;;;;;;;;;10.02;64.73;96803.38;4167099;28;5812;-72
2023/12/09 06:10:59;;;;;;;;;;;;;;;10.03;64.81;96813.75;4165984;28;6499;-72
2023/12/09 06:13:01;;;;;;;;;;;;;;;10.05;64.89;96816.22;4166405;28;5737;-71
2023/12/09 06:15:07;;;;;;;;;;;;;;;10.06;64.66;96831.84;4166103;28;5821;-72
2023/12/09 06:17:10;;;;;;;;;;;;;;;10.06;64.77;96817.84;4164618;28;5860;-71
2023/12/09 06:19:14;;;;;;;;;;;;;;;10.08;64.28;96823.75;4167029;28;5726;-72
2023/12/09 06:21:21;;;;;;;;;;;;;;;10.04;64.38;96825.13;4164906;28;5840;-72
2023/12/09 06:23:24;;;;;;;;;;;;;;;10.02;64.55;96821.88;4166067;28;5718;-72
2023/12/09 06:25:27;;;;;;;;;;;;;;;10.01;64.48;96822.88;4165435;28;5737;-72
2023/12/09 06:27:29;;;;;;;;;;;;;;;10.01;64.89;96825.53;4169511;28;5745;-72
2023/12/09 06:29:34;;;;;;;;;;;;;;;10.01;64.61;96814.97;4170136;28;6435;-72
2023/12/09 06:31:39;;;;;;;;;;;;;;;9.98;64.59;96818.00;4170071;28;5093;-71
2023/12/09 06:33:42;;;;;;;;;;;;;;;9.98;64.40;96842.56;4169730;28;7749;-72
2023/12/09 06:35:45;;;;;;;;;;;;;;;10.00;64.74;96845.03;4169734;28;5730;-72
2023/12/09 06:37:47;;;;;;;;;;;;;;;10.01;64.45;96852.75;4168576;28;5924;-72
2023/12/09 06:39:50;;;;;;;;;;;;;;;10.03;64.70;96839.34;4170109;28;5734;-72
2023/12/09 06:41:53;;;;;;;;;;;;;;;10.03;64.26;96818.22;4169547;28;5828;-72
2023/12/09 06:43:56;;;;;;;;;;;;;;;10.04;64.21;96798.72;4169879;28;5757;-72
2023/12/09 06:45:59;;;;;;;;;;;;;;;10.06;64.33;96796.72;4169967;28;6408;-71
2023/12/09 06:48:04;;;;;;;;;;;;;;;10.04;64.59;96794.25;4169995;28;5745;-72
2023/12/09 06:50:08;;;;;;;;;;;;;;;10.05;64.30;96789.78;4170204;28;5760;-71
2023/12/09 06:52:11;;;;;;;;;;;;;;;10.04;64.20;96778.41;4169809;28;5812;-71
2023/12/09 06:54:14;;;;;;;;;;;;;;;10.02;64.04;96758.50;4169660;28;5726;-72
2023/12/09 06:56:20;;;;;;;;;;;;;;;10.00;63.87;96757.88;4168977;28;6567;-72
2023/12/09 06:58:23;;;;;;;;;;;;;;;9.95;63.94;96790.09;4167318;28;5766;-72
2023/12/09 07:00:26;;;;;;;;;;;;;;;9.93;64.12;96798.22;4167114;28;5725;-72
2023/12/09 07:02:29;;;;;;;;;;;;;;;9.95;64.38;96794.56;4169535;28;5855;-72
2023/12/09 07:04:51;;;;;;;;;;;;;;;9.95;63.86;96776.91;4169629;28;5729;-72
2023/12/09 07:07:00;;;;;;;;;;;;;;;9.97;63.99;96760.91;4169553;28;5729;-72
2023/12/09 07:09:04;;;;;;;;;;;;;;;9.98;64.14;96773.91;4169735;28;5729;-72
2023/12/09 07:11:06;;;;;;;;;;;;;;;9.97;64.16;96766.19;4169480;28;5726;-72
2023/12/09 07:13:09;;;;;;;;;;;;;;;9.97;63.84;96767.00;4167215;28;5733;-71
2023/12/09 07:15:12;;;;;;;;;;;;;;;9.98;63.90;96765.97;4168982;28;5836;-71
2023/12/09 07:17:15;;;;;;;;;;;;;;;9.98;63.91;96765.16;4169395;28;6439;-72
2023/12/09 07:19:18;;;;;;;;;;;;;;;9.98;63.69;96768.63;4169397;28;5722;-72
2023/12/09 07:21:23;;;;;;;;;;;;;;;9.99;63.43;96774.72;4169164;28;5737;-72
2023/12/09 07:23:25;;;;;;;;;;;;;;;9.99;63.15;96785.28;4169237;28;5745;-72
2023/12/09 07:25:28;;;;;;;;;;;;;;;9.95;63.37;96779.53;4168680;28;5824;-71
2023/12/09 07:27:31;;;;;;;;;;;;;;;9.95;63.20;96782.19;4168970;28;5737;-72
2023/12/09 07:29:35;;;;;;;;;;;;;;;9.95;63.34;96771.63;4161636;28;5760;-71
2023/12/09 07:31:37;;;;;;;;;;;;;;;9.95;63.44;96768.16;4165422;28;5836;-71
2023/12/09 07:33:40;;;;;;;;;;;;;;;9.96;63.37;96769.78;4198828;28;6026;-72
2023/12/09 07:35:43;;;;;;;;;;;;;;;9.96;63.16;96767.16;4169308;28;5970;-71
2023/12/09 07:37:46;;;;;;;;;;;;;;;9.98;63.13;96773.09;4168867;28;5741;-72
2023/12/09 07:39:50;;;;;;;;;;;;;;;9.99;63.13;96780.00;4169791;28;5729;-71
2023/12/09 07:41:53;;;;;;;;;;;;;;;9.99;63.37;96777.38;4169665;28;5722;-73
2023/12/09 07:43:56;;;;;;;;;;;;;;;10.00;62.98;96776.34;4169614;28;6459;-73
2023/12/09 07:45:59;;;;;;;;;;;;;;;10.00;63.24;96779.00;4169272;28;5737;-74
2023/12/09 07:48:02;;;;;;;;;;;;;;;10.01;63.06;96767.41;4169754;28;5840;-75
2023/12/09 07:50:08;;;;;;;;;;;;;;;10.04;62.84;96764.38;4169730;28;5765;-73
2023/12/09 07:52:11;;;;;;;;;;;;;;;10.05;63.00;96763.38;4167849;28;6381;-74
2023/12/09 07:54:15;;;;;;;;;;;;;;;10.06;62.74;96770.28;4167803;28;5785;-73
2023/12/09 07:56:18;;;;;;;;;;;;;;;10.04;62.87;96778.41;4169044;28;5729;-71
2023/12/09 07:58:22;;;;;;;;;;;;;;;10.05;62.66;96774.75;4169113;28;5718;-72
2023/12/09 08:00:26;;;;;;;;;;;;;;;10.06;61.79;96781.69;4152987;28;5830;-72
2023/12/09 08:02:30;;;;;;;;;;;;;;;10.04;62.24;96773.13;4161464;28;5737;-73
2023/12/09 08:04:32;;;;;;;;;;;;;;;10.05;62.16;96785.31;4169160;28;5721;-73
2023/12/09 08:06:34;;;;;;;;;;;;;;;10.06;62.12;96786.97;4169170;28;5733;-73
2023/12/09 08:08:37;;;;;;;;;;;;;;;10.08;61.97;96794.69;4169026;28;5758;-75
2023/12/09 08:10:42;;;;;;;;;;;;;;;10.09;61.51;96793.72;4167834;28;5734;-71
2023/12/09 08:12:44;;;;;;;;;;;;;;;10.08;61.60;96797.31;4168237;28;5737;-70
2023/12/09 08:14:48;;;;;;;;;;;;;;;10.06;61.91;96802.81;4168145;28;6423;-72
2023/12/09 08:16:50;;;;;;;;;;;;;;;10.06;61.68;96791.44;4168136;28;5721;-69
2023/12/09 08:18:53;;;;;;;;;;;;;;;10.07;62.02;96795.69;4167888;28;5872;-71
2023/12/09 08:20:58;;;;;;;;;;;;;;;10.12;61.85;96795.97;4167914;28;5734;-74
2023/12/09 08:23:03;;;;;;;;;;;;;;;10.14;61.76;96783.38;4161047;28;5737;-71
2023/12/09 08:25:07;;;;;;;;;;;;;;;10.16;61.74;96782.19;4167236;28;5889;-68
2023/12/09 08:27:11;;;;;;;;;;;;;;;10.18;62.04;96776.69;4166812;28;5733;-68
2023/12/09 08:29:14;;;;;;;;;;;;;;;10.19;61.69;96780.97;4163843;28;5896;-68
2023/12/09 08:31:17;;;;;;;;;;;;;;;10.19;62.06;96787.09;4161680;28;5972;-72
2023/12/09 08:33:20;;;;;;;;;;;;;;;10.21;61.82;96789.53;4167883;28;5781;-72
2023/12/09 08:35:22;;;;;;;;;;;;;;;10.23;61.70;96790.19;4167757;28;5774;-70
2023/12/09 08:37:25;;;;;;;;;;;;;;;10.24;61.71;96783.91;4167603;28;5722;-72
2023/12/09 08:39:28;;;;;;;;;;;;;;;10.26;62.00;96784.53;4167604;28;5725;-72
2023/12/09 08:41:31;;;;;;;;;;;;;;;10.29;61.77;96792.06;4166798;28;5735;-71
2023/12/09 08:43:36;;;;;;;;;;;;;;;10.30;61.53;96796.34;4159666;28;5923;-69
2023/12/09 08:45:39;;;;;;;;;;;;;;;10.28;61.64;96785.16;4163905;28;5917;-70
2023/12/09 08:47:42;;;;;;;;;;;;;;;10.30;61.81;96787.59;4165781;28;5733;-70
2023/12/09 08:49:47;;;;;;;;;;;;;;;10.31;61.51;96784.78;4161805;28;5726;-70
2023/12/09 08:51:50;;;;;;;;;;;;;;;10.32;61.64;96785.59;4167532;28;5730;-69
2023/12/09 08:53:53;;;;;;;;;;;;;;;10.34;61.89;96781.75;4167226;28;5729;-68
2023/12/09 08:55:55;;;;;;;;;;;;;;;10.36;61.89;96786.84;4164685;28;5737;-70
2023/12/09 08:57:58;;;;;;;;;;;;;;;10.37;61.63;96789.28;4164155;28;5812;-71
2023/12/09 09:00:07;;;;;;;;;;;;;;;10.41;61.79;96790.53;4167522;28;5801;-72
2023/12/09 09:02:10;;;;;;;;;;;;;;;10.42;61.85;96786.91;4166568;28;5820;-69
2023/12/09 09:04:13;;;;;;;;;;;;;;;10.42;61.87;96780.81;4167913;28;5737;-71
2023/12/09 09:06:16;;;;;;;;;;;;;;;10.43;61.64;96783.25;4166537;28;5801;-71
2023/12/09 09:08:19;;;;;;;;;;;;;;;10.43;61.97;96777.97;4168028;28;5737;-71
2023/12/09 09:10:22;;;;;;;;;;;;;;;10.46;62.07;96771.47;4167752;28;5924;-71
2023/12/09 09:12:26;;;;;;;;;;;;;;;10.46;61.99;96761.72;4159545;28;5737;-73
2023/12/09 09:14:30;;;;;;;;;;;;;;;10.48;61.87;96764.97;4167856;28;5725;-71
2023/12/09 09:16:34;;;;;;;;;;;;;;;10.50;61.91;96756.84;4163500;28;5871;-72
2023/12/09 09:18:37;;;;;;;;;;;;;;;10.52;62.19;96748.72;4167124;28;5741;-73
2023/12/09 09:20:42;;;;;;;;;;;;;;;10.52;62.17;96752.19;4165453;28;5941;-71
2023/12/09 09:22:46;;;;;;;;;;;;;;;10.54;61.76;96746.72;4167200;28;6591;-70
2023/12/09 09:24:50;;;;;;;;;;;;;;;10.55;62.18;96740.44;4167393;28;7768;-72
2023/12/09 09:26:52;;;;;;;;;;;;;;;10.57;62.04;96746.31;4167190;28;5849;-70
2023/12/09 09:28:55;;;;;;;;;;;;;;;10.57;62.01;96735.75;4162054;28;6010;-70
2023/12/09 09:30:58;;;;;;;;;;;;;;;10.57;61.96;96730.47;4165550;28;5915;-67
2023/12/09 09:33:02;;;;;;;;;;;;;;;10.58;62.13;96732.09;4162343;28;5730;-69
2023/12/09 09:35:06;;;;;;;;;;;;;;;10.57;62.17;96735.75;4167055;28;5868;-69
2023/12/09 09:37:09;;;;;;;;;;;;;;;10.59;62.04;96736.38;4166536;28;5980;-70
2023/12/09 09:39:12;;;;;;;;;;;;;;;10.60;62.14;96741.47;4159181;28;5154;-69
2023/12/09 09:41:22;;;;;;;;;;;;;;;10.59;62.01;96733.72;4163495;28;5940;-70
2023/12/09 09:43:30;;;;;;;;;;;;;;;10.61;62.02;96753.66;4166824;28;5850;-70
2023/12/09 09:45:33;;;;;;;;;;;;;;;10.63;62.11;96740.25;4160988;28;5760;-70
2023/12/09 09:47:40;;;;;;;;;;;;;;;10.66;62.02;96739.88;4157976;28;5738;-70
2023/12/09 09:49:47;;;;;;;;;;;;;;;10.67;62.37;96744.16;4159382;28;5895;-69
2023/12/09 09:51:53;;;;;;;;;;;;;;;10.69;62.32;96744.78;4166346;28;5741;-68
2023/12/09 09:54:06;;;;;;;;;;;;;;;10.70;62.45;96741.13;4168261;28;5836;-68
2023/12/09 09:56:10;;;;;;;;;;;;;;;10.69;62.27;96740.28;4165844;28;5891;-70
2023/12/09 09:58:16;;;;;;;;;;;;;;;10.70;62.40;96741.13;4167070;28;5734;-68
2023/12/09 10:00:21;;;;;;;;;;;;;;;10.69;62.58;96739.47;4165954;28;5737;-70
2023/12/09 10:02:26;;;;;;;;;;;;;;;10.69;62.35;96739.47;4167270;28;5877;-70
2023/12/09 10:04:30;;;;;;;;;;;;;;;10.69;62.35;96744.78;4168946;28;5847;-69
2023/12/09 10:06:34;;;;;;;;;;;;;;;10.68;62.50;96743.13;4166952;28;5806;-70
2023/12/09 10:08:37;;;;;;;;;;;;;;;10.68;62.68;96732.56;4168256;28;5750;-69
2023/12/09 10:10:40;;;;;;;;;;;;;;;10.68;62.37;96735.22;4167495;28;5993;-70
2023/12/09 10:12:44;;;;;;;;;;;;;;;10.68;62.62;96730.75;4167080;28;5906;-69
2023/12/09 10:14:47;;;;;;;;;;;;;;;10.69;62.65;96729.72;4166836;28;5744;-71
2023/12/09 10:16:53;;;;;;;;;;;;;;;10.69;62.88;96726.25;4159765;28;5726;-69
2023/12/09 10:18:57;;;;;;;;;;;;;;;10.71;62.89;96721.59;4163781;28;5725;-68
2023/12/09 10:21:00;;;;;;;;;;;;;;;10.73;62.92;96719.56;4165917;28;5745;-68
2023/12/09 10:23:03;;;;;;;;;;;;;;;10.73;62.94;96717.72;4166043;28;5722;-68
2023/12/09 10:25:07;;;;;;;;;;;;;;;10.74;62.68;96710.63;4170027;28;5700;-68
2023/12/09 10:27:10;;;;;;;;;;;;;;;10.73;62.83;96703.69;4166664;28;5873;-68
2023/12/09 10:29:14;;;;;;;;;;;;;;;10.72;62.72;96691.50;4166236;28;5749;-68
2023/12/09 10:31:17;;;;;;;;;;;;;;;10.70;62.95;96691.69;4160821;28;5931;-68
2023/12/09 10:33:22;;;;;;;;;;;;;;;10.68;62.95;96680.50;4176806;28;5700;-67
2023/12/09 10:35:25;;;;;;;;;;;;;;;10.70;62.79;96678.47;4163729;28;5954;-67
2023/12/09 10:37:27;;;;;;;;;;;;;;;10.72;62.79;96670.34;4167596;28;6953;-68
2023/12/09 10:39:32;;;;;;;;;;;;;;;10.73;62.75;96666.69;4165520;28;5733;-68
2023/12/09 10:41:34;;;;;;;;;;;;;;;10.74;63.05;96661.19;4172375;28;5711;-69
2023/12/09 10:43:38;;;;;;;;;;;;;;;10.75;63.06;96654.06;4163186;28;5800;-68
2023/12/09 10:45:41;;;;;;;;;;;;;;;10.77;63.15;96657.38;4158094;28;5767;-69
2023/12/09 10:47:44;;;;;;;;;;;;;;;10.75;63.25;96667.28;4166806;28;6432;-70
2023/12/09 10:49:46;;;;;;;;;;;;;;;10.73;63.21;96656.91;4163536;28;5696;-68
2023/12/09 10:51:49;;;;;;;;;;;;;;;10.73;63.07;96643.69;4163065;28;5757;-68
2023/12/09 10:53:52;;;;;;;;;;;;;;;10.76;63.25;96639.88;4164038;28;5869;-69